createdAt,value
2024-05-09T12:07:30.413Z,1020.30
2024-05-09T12:08:31.294Z,1020.32
2024-05-09T12:09:31.293Z,1020.32
2024-05-09T12:10:34.145Z,1020.31
2024-05-09T12:11:31.302Z,1020.29
2024-05-09T12:12:31.929Z,1020.27
2024-05-09T12:13:31.273Z,1020.26
2024-05-09T12:14:31.235Z,1020.26
2024-05-09T12:15:31.264Z,1020.24
2024-05-09T12:16:31.703Z,1020.24
2024-05-09T12:17:31.297Z,1020.25
2024-05-09T12:18:31.263Z,1020.27
2024-05-09T12:19:31.211Z,1020.25
2024-05-09T12:20:36.820Z,1020.23
2024-05-09T12:21:31.248Z,1020.22
2024-05-09T12:22:31.175Z,1020.21
2024-05-09T12:23:31.133Z,1020.20
2024-05-09T12:24:31.192Z,1020.21
2024-05-09T12:25:31.146Z,1020.20
2024-05-09T12:26:31.163Z,1020.22
2024-05-09T12:27:31.187Z,1020.20
2024-05-09T12:28:31.209Z,1020.18
2024-05-09T12:29:31.100Z,1020.17
2024-05-09T12:30:36.758Z,1020.16
2024-05-09T12:31:31.213Z,1020.13
2024-05-09T12:32:31.204Z,1020.13
2024-05-09T12:33:31.189Z,1020.12
2024-05-09T12:34:31.098Z,1020.10
2024-05-09T12:35:31.051Z,1020.08
2024-05-09T12:36:31.108Z,1020.14
2024-05-09T12:37:31.049Z,1020.08
2024-05-09T12:38:31.023Z,1020.08
2024-05-09T12:39:31.124Z,1020.08
2024-05-09T12:40:36.016Z,1020.03
2024-05-09T12:41:31.022Z,1020.07
2024-05-09T12:42:33.276Z,1020.04
2024-05-09T12:43:31.095Z,1020.05
2024-05-09T12:44:30.949Z,1020.02
2024-05-09T12:45:31.135Z,1019.98
2024-05-09T12:46:30.974Z,1019.97
2024-05-09T12:47:31.097Z,1019.97
2024-05-09T12:48:31.156Z,1019.96
2024-05-09T12:49:31.034Z,1019.94
2024-05-09T12:50:33.369Z,1019.93
2024-05-09T12:51:30.960Z,1019.92
2024-05-09T12:52:30.892Z,1019.91
2024-05-09T12:53:30.890Z,1019.93
2024-05-09T12:54:30.894Z,1019.92
2024-05-09T12:55:37.246Z,1019.88
2024-05-09T12:56:30.839Z,1019.85
2024-05-09T12:57:30.892Z,1019.83
2024-05-09T12:58:30.881Z,1019.81
2024-05-09T12:59:30.814Z,1019.80
2024-05-09T13:00:33.972Z,1019.78
2024-05-09T13:01:30.925Z,1019.79
2024-05-09T13:02:30.886Z,1019.80
2024-05-09T13:03:31.118Z,1019.77
2024-05-09T13:04:30.983Z,1019.75
2024-05-09T13:05:31.004Z,1019.73
2024-05-09T13:06:30.796Z,1019.70
2024-05-09T13:07:30.763Z,1019.67
2024-05-09T13:08:30.754Z,1019.64
2024-05-09T13:09:30.752Z,1019.64
2024-05-09T13:10:32.872Z,1019.61
2024-05-09T13:11:30.800Z,1019.59
2024-05-09T13:12:30.739Z,1019.58
2024-05-09T13:13:30.680Z,1019.60
2024-05-09T13:14:30.666Z,1019.59
2024-05-09T13:15:31.270Z,1019.57
2024-05-09T13:16:30.711Z,1019.56
2024-05-09T13:17:30.832Z,1019.54
2024-05-09T13:18:30.726Z,1019.54
2024-05-09T13:19:30.683Z,1019.54
2024-05-09T13:20:33.795Z,1019.52
2024-05-09T13:21:30.645Z,1019.51
2024-05-09T13:22:30.600Z,1019.49
2024-05-09T13:23:30.608Z,1019.45
2024-05-09T13:24:30.603Z,1019.45
2024-05-09T13:25:30.609Z,1019.43
2024-05-09T13:26:30.559Z,1019.39
2024-05-09T13:27:30.599Z,1019.41
2024-05-09T13:28:30.610Z,1019.41
2024-05-09T13:29:30.546Z,1019.44
2024-05-09T13:30:38.854Z,1019.40
2024-05-09T13:31:30.665Z,1019.40
2024-05-09T13:32:30.602Z,1019.38
2024-05-09T13:33:30.666Z,1019.37
2024-05-09T13:34:30.544Z,1019.39
2024-05-09T13:35:30.495Z,1019.36
2024-05-09T13:36:30.507Z,1019.35
2024-05-09T13:37:30.472Z,1019.35
2024-05-09T13:38:30.457Z,1019.35
2024-05-09T13:39:30.475Z,1019.34
2024-05-09T13:40:34.394Z,1019.35
2024-05-09T13:41:30.449Z,1019.33
2024-05-09T13:42:30.492Z,1019.33
2024-05-09T13:43:29.630Z,1019.32
2024-05-09T14:07:47.674Z,1019.18
2024-05-09T14:08:48.639Z,1019.21
2024-05-09T14:09:48.671Z,1019.18
2024-05-09T14:10:48.898Z,1019.19
2024-05-09T14:11:48.670Z,1019.14
2024-05-09T14:12:48.693Z,1019.12
2024-05-09T14:13:48.613Z,1019.11
2024-05-09T14:14:48.580Z,1019.11
2024-05-09T14:15:48.765Z,1019.10
2024-05-09T14:16:48.730Z,1019.12
2024-05-09T14:17:48.596Z,1019.07
2024-05-09T14:18:48.642Z,1019.10
2024-05-09T14:19:48.559Z,1019.07
2024-05-09T14:20:48.541Z,1019.06
2024-05-09T14:21:48.563Z,1019.04
2024-05-09T14:22:48.517Z,1019.04
2024-05-09T14:23:48.561Z,1019.01
2024-05-09T14:24:48.593Z,1018.98
2024-05-09T14:25:51.889Z,1018.96
2024-05-09T14:26:54.536Z,1018.97
2024-05-09T14:27:55.747Z,1018.96
2024-05-09T14:28:54.490Z,1018.96
2024-05-09T14:29:54.451Z,1018.91
2024-05-09T14:30:48.497Z,1018.86
2024-05-09T14:31:48.516Z,1018.86
2024-05-09T14:32:48.564Z,1018.86
2024-05-09T14:33:48.639Z,1018.90
2024-05-09T14:34:48.643Z,1018.87
2024-05-09T14:35:48.444Z,1018.85
2024-05-09T14:36:48.435Z,1018.84
2024-05-09T14:37:48.383Z,1018.86
2024-05-09T14:38:48.370Z,1018.87
2024-05-09T14:39:48.417Z,1018.84
2024-05-09T14:40:48.521Z,1018.92
2024-05-09T14:41:48.372Z,1018.83
2024-05-09T14:42:55.032Z,1018.82
2024-05-09T14:43:57.013Z,1018.82
2024-05-09T14:44:54.322Z,1018.79
2024-05-09T14:45:48.344Z,1018.76
2024-05-09T14:46:55.328Z,1018.76
2024-05-09T14:47:54.501Z,1018.70
2024-05-09T14:48:48.453Z,1018.71
2024-05-09T14:49:55.872Z,1018.73
2024-05-09T14:50:48.253Z,1018.67
2024-05-09T14:51:54.906Z,1018.74
2024-05-09T14:52:55.913Z,1018.68
2024-05-09T14:53:55.905Z,1018.68
2024-05-09T14:55:00.212Z,1018.67
2024-05-09T14:56:57.891Z,1018.74
2024-05-09T14:59:23.507Z,1018.64
2024-05-09T15:00:35.848Z,1018.62
2024-05-09T15:01:24.553Z,1018.63
2024-05-09T15:02:24.527Z,1018.62
2024-05-09T15:03:32.544Z,1018.60
2024-05-09T15:04:30.551Z,1018.60
2024-05-09T15:05:30.697Z,1018.58
2024-05-09T15:06:24.536Z,1018.56
2024-05-09T15:07:24.469Z,1018.62
2024-05-09T15:08:30.424Z,1018.57
2024-05-09T15:09:30.960Z,1018.63
2024-05-09T15:10:35.571Z,1018.57
2024-05-09T15:11:24.391Z,1018.57
2024-05-09T15:12:33.447Z,1018.53
2024-05-09T15:14:16.421Z,1018.55
2024-05-09T15:15:17.424Z,1018.57
2024-05-09T15:16:17.468Z,1018.54
2024-05-09T15:17:35.678Z,1018.53
2024-05-09T15:18:36.869Z,1018.57
2024-05-09T15:19:43.260Z,1018.54
2024-05-09T15:20:37.699Z,1018.51
2024-05-09T15:21:36.586Z,1018.47
2024-05-09T15:22:42.551Z,1018.45
2024-05-09T15:23:36.529Z,1018.45
2024-05-09T15:24:36.547Z,1018.44
2024-05-09T15:25:37.048Z,1018.45
2024-05-09T15:26:36.572Z,1018.41
2024-05-09T15:27:36.540Z,1018.42
2024-05-09T15:28:36.470Z,1018.40
2024-05-09T15:29:36.543Z,1018.42
2024-05-09T15:30:37.065Z,1018.40
2024-05-09T15:31:36.501Z,1018.38
2024-05-09T15:32:36.540Z,1018.41
2024-05-09T15:33:36.533Z,1018.38
2024-05-09T15:35:15.735Z,1018.38
2024-05-09T15:39:27.955Z,1018.36
2024-05-09T16:24:08.469Z,1018.22
2024-05-09T16:25:28.772Z,1018.26
2024-05-09T16:26:29.752Z,1018.24
2024-05-09T16:27:29.778Z,1018.20
2024-05-09T16:28:29.792Z,1018.21
2024-05-09T16:29:29.722Z,1018.23
2024-05-09T16:30:34.904Z,1018.20
2024-05-09T16:31:29.799Z,1018.21
2024-05-09T16:32:29.792Z,1018.20
2024-05-09T16:33:29.904Z,1018.21
2024-05-09T16:34:29.746Z,1018.18
2024-05-09T16:35:29.681Z,1018.22
2024-05-09T16:36:29.744Z,1018.15
2024-05-09T16:37:29.865Z,1018.15
2024-05-09T16:38:29.637Z,1018.14
2024-05-09T16:39:29.702Z,1018.15
2024-05-09T16:40:36.872Z,1018.15
2024-05-09T16:41:29.622Z,1018.14
2024-05-09T16:42:29.662Z,1018.13
2024-05-09T16:43:29.670Z,1018.14
2024-05-09T16:44:30.600Z,1018.14
2024-05-09T16:45:29.747Z,1018.15
2024-05-09T16:46:29.567Z,1018.19
2024-05-09T16:47:29.664Z,1018.14
2024-05-09T16:48:29.627Z,1018.14
2024-05-09T16:49:29.754Z,1018.14
2024-05-09T16:50:33.251Z,1018.14
2024-05-09T16:51:29.537Z,1018.13
2024-05-09T16:52:29.495Z,1018.12
2024-05-09T16:53:29.510Z,1018.14
2024-05-09T16:54:29.626Z,1018.14
2024-05-09T16:55:29.580Z,1018.14
2024-05-09T16:56:29.464Z,1018.13
2024-05-09T16:57:29.468Z,1018.12
2024-05-09T16:58:29.538Z,1018.12
2024-05-09T16:59:29.467Z,1018.12
2024-05-09T17:00:38.365Z,1018.14
2024-05-09T17:01:29.470Z,1018.18
2024-05-09T17:02:29.568Z,1018.13
2024-05-09T17:03:29.458Z,1018.10
2024-05-09T17:04:29.593Z,1018.10
2024-05-09T17:05:29.550Z,1018.09
2024-05-09T17:06:29.401Z,1018.08
2024-05-09T17:07:29.387Z,1018.09
2024-05-09T17:08:29.390Z,1018.11
2024-05-09T17:09:29.435Z,1018.12
2024-05-09T17:10:33.222Z,1018.11
2024-05-09T17:11:29.343Z,1018.11
2024-05-09T17:12:29.309Z,1018.09
2024-05-09T17:13:29.371Z,1018.08
2024-05-09T17:14:29.324Z,1018.07
2024-05-09T17:15:29.286Z,1018.07
2024-05-09T17:16:29.403Z,1018.06
2024-05-09T17:17:29.380Z,1018.06
2024-05-09T17:18:29.305Z,1018.06
2024-05-09T17:19:29.277Z,1018.05
2024-05-09T17:20:33.877Z,1018.05
2024-05-09T17:21:29.262Z,1018.04
2024-05-09T17:22:29.224Z,1018.04
2024-05-09T17:23:30.482Z,1018.02
2024-05-09T17:24:30.194Z,1018.03
2024-05-09T17:25:29.347Z,1018.03
2024-05-09T17:26:29.193Z,1018.03
2024-05-09T17:27:29.182Z,1018.02
2024-05-09T17:28:29.198Z,1018.01
2024-05-09T17:29:29.193Z,1018.00
2024-05-09T17:30:35.014Z,1018.00
2024-05-09T17:31:29.329Z,1017.99
2024-05-09T17:32:29.195Z,1018.01
2024-05-09T17:33:29.244Z,1017.97
2024-05-09T17:34:29.281Z,1017.97
2024-05-09T17:35:29.108Z,1017.98
2024-05-09T17:36:29.088Z,1017.98
2024-05-09T17:37:29.129Z,1017.97
2024-05-09T17:38:29.080Z,1017.98
2024-05-09T17:39:29.063Z,1017.99
2024-05-09T17:40:33.741Z,1017.99
2024-05-09T17:41:29.056Z,1018.01
2024-05-09T17:42:29.027Z,1018.01
2024-05-09T17:43:29.237Z,1018.01
2024-05-09T17:44:29.015Z,1018.02
2024-05-09T17:45:29.034Z,1018.02
2024-05-09T17:46:29.089Z,1018.01
2024-05-09T17:47:29.096Z,1018.01
2024-05-09T17:48:29.073Z,1018.00
2024-05-09T17:49:29.109Z,1018.00
2024-05-09T17:50:35.419Z,1017.99
2024-05-09T17:51:28.965Z,1018.01
2024-05-09T17:52:28.966Z,1018.01
2024-05-09T17:53:28.925Z,1018.01
2024-05-09T17:54:28.909Z,1018.01
2024-05-09T17:55:29.182Z,1018.00
2024-05-09T17:56:28.901Z,1018.00
2024-05-09T17:57:28.907Z,1017.97
2024-05-09T17:58:28.943Z,1017.97
2024-05-09T17:59:28.902Z,1017.96
2024-05-09T18:00:37.062Z,1017.95
2024-05-09T18:01:28.914Z,1017.96
2024-05-09T18:02:28.979Z,1017.97
2024-05-09T18:03:29.089Z,1017.98
2024-05-09T18:04:31.100Z,1017.99
2024-05-09T18:05:29.012Z,1018.01
2024-05-09T18:06:28.796Z,1018.01
2024-05-09T18:07:28.827Z,1018.03
2024-05-09T18:08:28.778Z,1018.02
2024-05-09T18:09:28.793Z,1018.03
2024-05-09T18:10:35.486Z,1018.04
2024-05-09T18:11:28.786Z,1018.04
2024-05-09T18:12:28.748Z,1018.03
2024-05-09T18:13:28.946Z,1018.07
2024-05-09T18:14:28.739Z,1018.06
2024-05-09T18:15:28.780Z,1018.07
2024-05-09T18:16:28.772Z,1018.07
2024-05-09T18:17:28.900Z,1018.10
2024-05-09T18:18:28.751Z,1018.10
2024-05-09T18:19:28.837Z,1018.12
2024-05-09T18:20:37.752Z,1018.10
2024-05-09T18:21:28.687Z,1018.13
2024-05-09T18:22:28.694Z,1018.13
2024-05-09T18:23:28.646Z,1018.15
2024-05-09T18:24:28.703Z,1018.16
2024-05-09T18:25:28.620Z,1018.15
2024-05-09T18:26:28.602Z,1018.16
2024-05-09T18:27:28.610Z,1018.16
2024-05-09T18:28:28.816Z,1018.16
2024-05-09T18:29:28.655Z,1018.16
2024-05-09T18:30:34.375Z,1018.16
2024-05-09T18:31:28.643Z,1018.16
2024-05-09T18:32:28.791Z,1018.16
2024-05-09T18:33:28.703Z,1018.15
2024-05-09T18:34:28.710Z,1018.15
2024-05-09T18:35:28.539Z,1018.16
2024-05-09T18:36:28.513Z,1018.16
2024-05-09T18:37:28.572Z,1018.15
2024-05-09T18:38:28.489Z,1018.16
2024-05-09T18:39:28.492Z,1018.16
2024-05-09T18:40:34.054Z,1018.16
2024-05-09T18:42:38.714Z,1018.17
2024-05-09T18:43:44.999Z,1018.19
2024-05-09T18:44:39.647Z,1018.19
2024-05-09T18:45:39.998Z,1018.20
2024-05-09T18:46:39.663Z,1018.22
2024-05-09T18:47:39.642Z,1018.22
2024-05-09T18:48:39.875Z,1018.24
2024-05-09T18:49:39.642Z,1018.24
2024-05-09T18:50:41.245Z,1018.25
2024-05-09T18:51:39.637Z,1018.26
2024-05-09T18:52:39.557Z,1018.28
2024-05-09T18:53:40.820Z,1018.29
2024-05-09T18:54:39.576Z,1018.29
2024-05-09T18:55:39.539Z,1018.31
2024-05-09T18:56:39.515Z,1018.32
2024-05-09T18:57:39.538Z,1018.34
2024-05-09T18:58:39.497Z,1018.36
2024-05-09T18:59:39.478Z,1018.37
2024-05-09T19:00:41.821Z,1018.38
2024-05-09T19:01:39.553Z,1018.38
2024-05-09T19:02:39.612Z,1018.38
2024-05-09T19:03:39.742Z,1018.39
2024-05-09T19:04:39.486Z,1018.40
2024-05-09T19:05:40.374Z,1018.40
2024-05-09T19:06:39.467Z,1018.41
2024-05-09T19:07:39.416Z,1018.42
2024-05-09T19:08:39.390Z,1018.41
2024-05-09T19:09:39.425Z,1018.43
2024-05-09T19:10:39.743Z,1018.44
2024-05-09T19:11:39.449Z,1018.44
2024-05-09T19:12:39.457Z,1018.45
2024-05-09T19:13:39.388Z,1018.45
2024-05-09T19:14:39.386Z,1018.46
2024-05-09T19:15:40.092Z,1018.47
2024-05-09T19:16:39.334Z,1018.47
2024-05-09T19:17:39.447Z,1018.47
2024-05-09T19:18:39.453Z,1018.48
2024-05-09T19:19:39.375Z,1018.48
2024-05-09T19:20:39.592Z,1018.48
2024-05-09T19:21:42.081Z,1018.49
2024-05-09T19:22:39.274Z,1018.49
2024-05-09T19:23:46.828Z,1018.49
2024-05-09T19:24:39.356Z,1018.50
2024-05-09T19:25:39.253Z,1018.50
2024-05-09T19:26:39.270Z,1018.50
2024-05-09T19:27:39.257Z,1018.51
2024-05-09T19:28:39.504Z,1018.50
2024-05-09T19:29:39.211Z,1018.50
2024-05-09T19:30:41.979Z,1018.50
2024-05-09T19:31:39.194Z,1018.50
2024-05-09T19:32:39.245Z,1018.51
2024-05-09T19:33:39.243Z,1018.51
2024-05-09T19:34:39.162Z,1018.50
2024-05-09T19:35:39.210Z,1018.51
2024-05-09T19:36:39.176Z,1018.50
2024-05-09T19:37:40.903Z,1018.50
2024-05-09T19:38:39.120Z,1018.49
2024-05-09T19:39:39.112Z,1018.49
2024-05-09T19:40:39.233Z,1018.50
2024-05-09T19:41:39.113Z,1018.50
2024-05-09T19:42:39.092Z,1018.50
2024-05-09T19:43:39.113Z,1018.52
2024-05-09T19:44:39.157Z,1018.52
2024-05-09T19:45:39.130Z,1018.52
2024-05-09T19:46:39.522Z,1018.52
2024-05-09T19:47:39.069Z,1018.54
2024-05-09T19:48:39.170Z,1018.54
2024-05-09T19:49:39.071Z,1018.54
2024-05-09T19:50:43.246Z,1018.55
2024-05-09T19:51:39.181Z,1018.56
2024-05-09T19:52:38.981Z,1018.57
2024-05-09T19:53:38.966Z,1018.58
2024-05-09T19:54:38.972Z,1018.59
2024-05-09T19:55:39.009Z,1018.59
2024-05-09T19:56:38.988Z,1018.60
2024-05-09T19:57:38.981Z,1018.60
2024-05-09T19:58:39.004Z,1018.60
2024-05-09T19:59:38.941Z,1018.62
2024-05-09T20:00:41.619Z,1018.62
2024-05-09T20:01:39.137Z,1018.64
2024-05-09T20:02:39.000Z,1018.65
2024-05-09T20:03:39.072Z,1018.65
2024-05-09T20:04:39.057Z,1018.67
2024-05-09T20:05:39.626Z,1018.68
2024-05-09T20:06:38.890Z,1018.68
2024-05-09T20:07:38.854Z,1018.69
2024-05-09T20:08:38.842Z,1018.69
2024-05-09T20:09:38.944Z,1018.70
2024-05-09T20:10:38.918Z,1018.70
2024-05-09T20:11:38.902Z,1018.70
2024-05-09T20:12:38.831Z,1018.71
2024-05-09T20:13:38.828Z,1018.70
2024-05-09T20:14:38.796Z,1018.69
2024-05-09T20:15:39.023Z,1018.70
2024-05-09T20:16:38.767Z,1018.70
2024-05-09T20:17:38.795Z,1018.69
2024-05-09T20:18:38.946Z,1018.70
2024-05-09T20:19:38.899Z,1018.70
2024-05-09T20:20:41.984Z,1018.70
2024-05-09T20:21:38.756Z,1018.71
2024-05-09T20:22:38.725Z,1018.70
2024-05-09T20:23:38.720Z,1018.69
2024-05-09T20:24:38.774Z,1018.68
2024-05-09T20:25:38.673Z,1018.68
2024-05-09T20:26:38.680Z,1018.69
2024-05-09T20:27:38.717Z,1018.69
2024-05-09T20:28:38.678Z,1018.71
2024-05-09T20:29:38.639Z,1018.70
2024-05-09T20:30:38.776Z,1018.71
2024-05-09T20:31:38.620Z,1018.69
2024-05-09T20:32:38.886Z,1018.69
2024-05-09T20:33:38.802Z,1018.69
2024-05-09T20:34:38.624Z,1018.67
2024-05-09T20:35:38.600Z,1018.66
2024-05-09T20:36:38.568Z,1018.66
2024-05-09T20:37:38.622Z,1018.65
2024-05-09T20:38:38.569Z,1018.63
2024-05-09T20:39:38.589Z,1018.62
2024-05-09T20:40:39.751Z,1018.63
2024-05-09T20:41:38.529Z,1018.62
2024-05-09T20:42:38.696Z,1018.64
2024-05-09T20:43:38.532Z,1018.63
2024-05-09T20:44:38.600Z,1018.63
2024-05-09T20:45:39.223Z,1018.63
2024-05-09T20:46:38.523Z,1018.63
2024-05-09T20:47:38.756Z,1018.64
2024-05-09T20:48:38.632Z,1018.64
2024-05-09T20:49:38.516Z,1018.64
2024-05-09T20:50:41.462Z,1018.64
2024-05-09T20:51:38.687Z,1018.64
2024-05-09T20:52:38.446Z,1018.65
2024-05-09T20:53:38.425Z,1018.67
2024-05-09T20:54:38.430Z,1018.66
2024-05-09T20:55:38.378Z,1018.66
2024-05-09T20:56:38.435Z,1018.66
2024-05-09T20:57:38.438Z,1018.66
2024-05-09T20:58:38.346Z,1018.66
2024-05-09T20:59:38.388Z,1018.65
2024-05-09T21:00:42.233Z,1018.65
2024-05-09T21:01:38.401Z,1018.65
2024-05-09T21:02:38.543Z,1018.65
2024-05-09T21:03:38.573Z,1018.65
2024-05-09T21:04:38.539Z,1018.65
2024-05-09T21:05:38.808Z,1018.65
2024-05-09T21:06:38.332Z,1018.65
2024-05-09T21:07:38.294Z,1018.65
2024-05-09T21:08:38.262Z,1018.65
2024-05-09T21:09:38.278Z,1018.65
2024-05-09T21:10:38.421Z,1018.64
2024-05-09T21:11:38.246Z,1018.64
2024-05-09T21:12:38.313Z,1018.63
2024-05-09T21:13:38.283Z,1018.63
2024-05-09T21:14:38.222Z,1018.62
2024-05-09T21:15:38.354Z,1018.61
2024-05-09T21:16:38.425Z,1018.62
2024-05-09T21:17:38.337Z,1018.64
2024-05-09T21:18:38.611Z,1018.65
